sensor_id;sensor_type;location;lat;lon;timestamp;pressure;altitude;pressure_sealevel;temperature;humidity
81181;BME280;70650;51.408;7.132;2023-08-17T00:00:02;100816.97;;;17.88;86.06
81181;BME280;70650;51.408;7.132;2023-08-17T00:02:29;100834.47;;;17.92;85.67
81181;BME280;70650;51.408;7.132;2023-08-17T00:04:54;100833.25;;;17.96;85.84
81181;BME280;70650;51.408;7.132;2023-08-17T00:07:19;100831.31;;;17.98;85.94
81181;BME280;70650;51.408;7.132;2023-08-17T00:09:45;100840.69;;;18.04;86.02
81181;BME280;70650;51.408;7.132;2023-08-17T00:12:10;100845.19;;;18.03;85.57
81181;BME280;70650;51.408;7.132;2023-08-17T00:14:36;100851.53;;;18.02;85.62
81181;BME280;70650;51.408;7.132;2023-08-17T00:17:02;100851.28;;;18.05;85.80
81181;BME280;70650;51.408;7.132;2023-08-17T00:19:28;100848.97;;;18.00;85.74
81181;BME280;70650;51.408;7.132;2023-08-17T00:21:54;100855.16;;;18.01;86.13
81181;BME280;70650;51.408;7.132;2023-08-17T00:24:20;100849.09;;;17.99;85.57
81181;BME280;70650;51.408;7.132;2023-08-17T00:26:45;100852.28;;;18.04;85.01
81181;BME280;70650;51.408;7.132;2023-08-17T00:29:10;100855.28;;;17.99;86.08
81181;BME280;70650;51.408;7.132;2023-08-17T00:31:36;100859.41;;;18.04;85.84
81181;BME280;70650;51.408;7.132;2023-08-17T00:34:01;100857.63;;;18.04;86.27
81181;BME280;70650;51.408;7.132;2023-08-17T00:36:26;100853.13;;;18.05;86.02
81181;BME280;70650;51.408;7.132;2023-08-17T00:38:52;100849.47;;;18.06;86.15
81181;BME280;70650;51.408;7.132;2023-08-17T00:41:20;100847.78;;;18.05;86.62
81181;BME280;70650;51.408;7.132;2023-08-17T00:43:45;100848.84;;;18.02;86.37
81181;BME280;70650;51.408;7.132;2023-08-17T00:46:11;100848.38;;;18.08;86.19
81181;BME280;70650;51.408;7.132;2023-08-17T00:48:37;100842.50;;;18.03;86.10
81181;BME280;70650;51.408;7.132;2023-08-17T00:51:02;100842.91;;;17.98;86.37
81181;BME280;70650;51.408;7.132;2023-08-17T00:53:29;100850.78;;;18.00;86.79
81181;BME280;70650;51.408;7.132;2023-08-17T00:55:56;100858.69;;;18.01;86.67
81181;BME280;70650;51.408;7.132;2023-08-17T00:58:22;100861.16;;;18.05;86.48
81181;BME280;70650;51.408;7.132;2023-08-17T01:00:47;100860.91;;;18.08;86.62
81181;BME280;70650;51.408;7.132;2023-08-17T01:03:13;100860.03;;;18.07;86.21
81181;BME280;70650;51.408;7.132;2023-08-17T01:05:40;100860.66;;;18.11;86.38
81181;BME280;70650;51.408;7.132;2023-08-17T01:08:05;100855.78;;;18.05;86.54
81181;BME280;70650;51.408;7.132;2023-08-17T01:10:44;100851.53;;;18.13;86.74
81181;BME280;70650;51.408;7.132;2023-08-17T01:13:16;100849.81;;;18.01;86.82
81181;BME280;70650;51.408;7.132;2023-08-17T01:15:49;100841.56;;;18.04;86.49
81181;BME280;70650;51.408;7.132;2023-08-17T01:18:26;100855.41;;;18.09;86.53
81181;BME280;70650;51.408;7.132;2023-08-17T01:20:54;100842.16;;;18.08;86.79
81181;BME280;70650;51.408;7.132;2023-08-17T01:23:20;100841.94;;;18.11;86.76
81181;BME280;70650;51.408;7.132;2023-08-17T01:25:47;100843.88;;;18.09;86.32
81181;BME280;70650;51.408;7.132;2023-08-17T01:28:13;100843.88;;;18.09;85.97
81181;BME280;70650;51.408;7.132;2023-08-17T01:33:11;100836.94;;;18.06;85.71
81181;BME280;70650;51.408;7.132;2023-08-17T01:35:45;100837.44;;;18.11;86.48
81181;BME280;70650;51.408;7.132;2023-08-17T01:38:16;100827.47;;;18.13;86.20
81181;BME280;70650;51.408;7.132;2023-08-17T01:40:45;100831.09;;;18.12;86.68
81181;BME280;70650;51.408;7.132;2023-08-17T01:43:13;100819.44;;;18.13;85.72
81181;BME280;70650;51.408;7.132;2023-08-17T01:49:04;100798.75;;;18.04;85.93
81181;BME280;70650;51.408;7.132;2023-08-17T01:51:30;100789.97;;;18.02;86.52
81181;BME280;70650;51.408;7.132;2023-08-17T01:53:55;100798.00;;;18.02;86.32
81181;BME280;70650;51.408;7.132;2023-08-17T01:56:24;100802.38;;;18.03;86.19
81181;BME280;70650;51.408;7.132;2023-08-17T01:58:49;100797.63;;;17.95;86.53
81181;BME280;70650;51.408;7.132;2023-08-17T02:01:15;100795.69;;;17.97;85.94
81181;BME280;70650;51.408;7.132;2023-08-17T02:03:40;100785.97;;;17.96;85.48
81181;BME280;70650;51.408;7.132;2023-08-17T02:06:08;100791.19;;;17.98;86.19
81181;BME280;70650;51.408;7.132;2023-08-17T02:08:34;100790.47;;;17.96;86.44
81181;BME280;70650;51.408;7.132;2023-08-17T02:11:00;100792.28;;;17.95;85.52
81181;BME280;70650;51.408;7.132;2023-08-17T02:13:25;100796.78;;;17.84;86.17
81181;BME280;70650;51.408;7.132;2023-08-17T02:15:52;100795.78;;;17.85;85.66
81181;BME280;70650;51.408;7.132;2023-08-17T02:18:17;100801.50;;;17.80;85.60
81181;BME280;70650;51.408;7.132;2023-08-17T02:20:43;100791.03;;;17.77;86.05
81181;BME280;70650;51.408;7.132;2023-08-17T02:23:09;100795.53;;;17.77;86.10
81181;BME280;70650;51.408;7.132;2023-08-17T02:25:38;100792.88;;;17.77;86.27
81181;BME280;70650;51.408;7.132;2023-08-17T02:28:03;100785.50;;;17.67;86.07
81181;BME280;70650;51.408;7.132;2023-08-17T02:30:29;100790.41;;;17.73;86.65
81181;BME280;70650;51.408;7.132;2023-08-17T02:32:54;100790.19;;;17.77;86.18
81181;BME280;70650;51.408;7.132;2023-08-17T02:35:20;100782.03;;;17.78;86.04
81181;BME280;70650;51.408;7.132;2023-08-17T02:37:46;100777.81;;;17.76;85.87
81181;BME280;70650;51.408;7.132;2023-08-17T02:40:11;100780.78;;;17.71;86.30
81181;BME280;70650;51.408;7.132;2023-08-17T02:42:36;100789.66;;;17.71;87.04
81181;BME280;70650;51.408;7.132;2023-08-17T02:45:02;100783.16;;;17.76;86.68
81181;BME280;70650;51.408;7.132;2023-08-17T02:47:27;100779.38;;;17.78;86.13
81181;BME280;70650;51.408;7.132;2023-08-17T02:49:53;100778.13;;;17.71;86.46
81181;BME280;70650;51.408;7.132;2023-08-17T02:52:18;100780.47;;;17.76;86.56
81181;BME280;70650;51.408;7.132;2023-08-17T02:54:43;100779.50;;;17.77;86.38
81181;BME280;70650;51.408;7.132;2023-08-17T02:57:09;100782.25;;;17.75;86.46
81181;BME280;70650;51.408;7.132;2023-08-17T02:59:34;100783.56;;;17.69;86.26
81181;BME280;70650;51.408;7.132;2023-08-17T03:01:59;100784.44;;;17.70;86.68
81181;BME280;70650;51.408;7.132;2023-08-17T03:04:25;100777.25;;;17.70;85.87
81181;BME280;70650;51.408;7.132;2023-08-17T03:06:50;100778.22;;;17.69;86.69
81181;BME280;70650;51.408;7.132;2023-08-17T03:09:17;100790.53;;;17.72;86.21
81181;BME280;70650;51.408;7.132;2023-08-17T03:11:42;100779.31;;;17.67;86.17
81181;BME280;70650;51.408;7.132;2023-08-17T03:14:07;100793.78;;;17.64;86.48
81181;BME280;70650;51.408;7.132;2023-08-17T03:16:34;100793.53;;;17.67;86.23
81181;BME280;70650;51.408;7.132;2023-08-17T03:19:03;100787.69;;;17.62;86.41
81181;BME280;70650;51.408;7.132;2023-08-17T03:21:28;100785.97;;;17.61;85.50
81181;BME280;70650;51.408;7.132;2023-08-17T03:23:53;100793.78;;;17.64;85.51
81181;BME280;70650;51.408;7.132;2023-08-17T03:26:19;100796.47;;;17.64;85.00
81181;BME280;70650;51.408;7.132;2023-08-17T03:28:44;100786.19;;;17.58;86.77
81181;BME280;70650;51.408;7.132;2023-08-17T03:31:13;100793.28;;;17.59;85.99
81181;BME280;70650;51.408;7.132;2023-08-17T03:33:38;100791.81;;;17.55;86.32
81181;BME280;70650;51.408;7.132;2023-08-17T03:36:06;100797.16;;;17.55;86.39
81181;BME280;70650;51.408;7.132;2023-08-17T03:38:31;100794.47;;;17.55;85.99
81181;BME280;70650;51.408;7.132;2023-08-17T03:40:56;100793.28;;;17.59;86.04
81181;BME280;70650;51.408;7.132;2023-08-17T03:43:23;100798.34;;;17.51;85.86
81181;BME280;70650;51.408;7.132;2023-08-17T03:45:48;100795.06;;;17.47;86.25
81181;BME280;70650;51.408;7.132;2023-08-17T03:48:14;100788.41;;;17.53;86.05
81181;BME280;70650;51.408;7.132;2023-08-17T03:50:39;100789.25;;;17.54;86.36
81181;BME280;70650;51.408;7.132;2023-08-17T03:53:04;100782.59;;;17.59;86.19
81181;BME280;70650;51.408;7.132;2023-08-17T03:55:30;100790.69;;;17.58;86.25
81181;BME280;70650;51.408;7.132;2023-08-17T03:57:55;100785.75;;;17.64;86.40
81181;BME280;70650;51.408;7.132;2023-08-17T04:00:20;100790.81;;;17.56;86.27
81181;BME280;70650;51.408;7.132;2023-08-17T04:02:46;100789.13;;;17.55;85.89
81181;BME280;70650;51.408;7.132;2023-08-17T04:05:12;100786.94;;;17.49;86.50
81181;BME280;70650;51.408;7.132;2023-08-17T04:07:37;100792.66;;;17.56;86.91
81181;BME280;70650;51.408;7.132;2023-08-17T04:10:04;100797.16;;;17.55;86.49
81181;BME280;70650;51.408;7.132;2023-08-17T04:12:31;100796.81;;;17.60;86.47
81181;BME280;70650;51.408;7.132;2023-08-17T04:14:56;100794.13;;;17.60;86.50
81181;BME280;70650;51.408;7.132;2023-08-17T04:17:22;100796.91;;;17.58;86.18
81181;BME280;70650;51.408;7.132;2023-08-17T04:19:47;100790.59;;;17.59;85.88
81181;BME280;70650;51.408;7.132;2023-08-17T04:22:12;100788.78;;;17.60;86.29
81181;BME280;70650;51.408;7.132;2023-08-17T04:24:38;100791.53;;;17.58;85.67
81181;BME280;70650;51.408;7.132;2023-08-17T04:27:03;100793.50;;;17.56;86.61
81181;BME280;70650;51.408;7.132;2023-08-17T04:29:30;100806.22;;;17.53;86.03
81181;BME280;70650;51.408;7.132;2023-08-17T04:31:55;100794.59;;;17.54;86.14
81181;BME280;70650;51.408;7.132;2023-08-17T04:34:20;100798.22;;;17.53;86.61
81181;BME280;70650;51.408;7.132;2023-08-17T04:36:46;100798.97;;;17.55;86.16
81181;BME280;70650;51.408;7.132;2023-08-17T04:39:11;100805.03;;;17.57;86.02
81181;BME280;70650;51.408;7.132;2023-08-17T04:41:37;100809.78;;;17.53;86.23
81181;BME280;70650;51.408;7.132;2023-08-17T04:44:02;100808.81;;;17.54;86.26
81181;BME280;70650;51.408;7.132;2023-08-17T04:46:27;100806.59;;;17.48;86.60
81181;BME280;70650;51.408;7.132;2023-08-17T04:48:53;100802.72;;;17.52;86.22
81181;BME280;70650;51.408;7.132;2023-08-17T04:51:18;100806.59;;;17.48;86.72
81181;BME280;70650;51.408;7.132;2023-08-17T04:53:43;100809.50;;;17.45;86.81
81181;BME280;70650;51.408;7.132;2023-08-17T04:56:09;100798.09;;;17.43;86.78
81181;BME280;70650;51.408;7.132;2023-08-17T04:58:34;100803.03;;;17.36;87.52
81181;BME280;70650;51.408;7.132;2023-08-17T05:01:00;100801.34;;;17.46;86.85
81181;BME280;70650;51.408;7.132;2023-08-17T05:03:25;100800.00;;;17.41;86.96
81181;BME280;70650;51.408;7.132;2023-08-17T05:05:52;100803.09;;;17.47;87.57
81181;BME280;70650;51.408;7.132;2023-08-17T05:08:18;100802.88;;;17.62;86.04
81181;BME280;70650;51.408;7.132;2023-08-17T05:10:44;100803.72;;;17.62;86.39
81181;BME280;70650;51.408;7.132;2023-08-17T05:13:10;100805.19;;;17.66;86.23
81181;BME280;70650;51.408;7.132;2023-08-17T05:15:35;100811.28;;;17.68;86.65
81181;BME280;70650;51.408;7.132;2023-08-17T05:18:00;100804.44;;;17.53;87.08
81181;BME280;70650;51.408;7.132;2023-08-17T05:20:26;100807.38;;;17.61;87.36
81181;BME280;70650;51.408;7.132;2023-08-17T05:22:56;100808.84;;;17.65;86.88
81181;BME280;70650;51.408;7.132;2023-08-17T05:25:22;100809.34;;;17.70;86.57
81181;BME280;70650;51.408;7.132;2023-08-17T05:27:48;100813.94;;;17.68;86.20
81181;BME280;70650;51.408;7.132;2023-08-17T05:30:14;100814.19;;;17.65;86.37
81181;BME280;70650;51.408;7.132;2023-08-17T05:32:41;100824.63;;;17.92;87.56
81181;BME280;70650;51.408;7.132;2023-08-17T05:35:07;100820.59;;;17.76;86.47
81181;BME280;70650;51.408;7.132;2023-08-17T05:37:32;100818.81;;;18.66;91.17
81181;BME280;70650;51.408;7.132;2023-08-17T05:39:57;100824.28;;;19.41;84.55
81181;BME280;70650;51.408;7.132;2023-08-17T05:42:23;100817.91;;;19.95;81.15
81181;BME280;70650;51.408;7.132;2023-08-17T05:44:50;100809.00;;;20.16;78.47
81181;BME280;70650;51.408;7.132;2023-08-17T05:47:15;100812.06;;;20.42;76.71
81181;BME280;70650;51.408;7.132;2023-08-17T05:49:43;100813.81;;;20.43;76.31
81181;BME280;70650;51.408;7.132;2023-08-17T05:52:10;100819.88;;;20.45;75.08
81181;BME280;70650;51.408;7.132;2023-08-17T05:54:35;100818.13;;;20.34;75.34
81181;BME280;70650;51.408;7.132;2023-08-17T05:57:01;100821.28;;;19.88;76.52
81181;BME280;70650;51.408;7.132;2023-08-17T05:59:26;100821.00;;;19.38;78.72
81181;BME280;70650;51.408;7.132;2023-08-17T06:01:52;100818.16;;;19.18;80.12
81181;BME280;70650;51.408;7.132;2023-08-17T06:04:17;100818.94;;;18.87;81.32
81181;BME280;70650;51.408;7.132;2023-08-17T06:06:43;100815.28;;;18.65;82.70
81181;BME280;70650;51.408;7.132;2023-08-17T06:09:08;100816.91;;;18.57;83.19
81181;BME280;70650;51.408;7.132;2023-08-17T06:11:34;100816.63;;;18.37;83.69
81181;BME280;70650;51.408;7.132;2023-08-17T06:14:00;100816.53;;;18.39;84.01
81181;BME280;70650;51.408;7.132;2023-08-17T06:16:25;100812.53;;;18.44;83.56
81181;BME280;70650;51.408;7.132;2023-08-17T06:18:52;100814.09;;;18.58;83.59
81181;BME280;70650;51.408;7.132;2023-08-17T06:21:17;100814.94;;;18.59;83.43
81181;BME280;70650;51.408;7.132;2023-08-17T06:23:42;100815.56;;;18.51;83.32
81181;BME280;70650;51.408;7.132;2023-08-17T06:26:08;100807.25;;;18.54;84.12
81181;BME280;70650;51.408;7.132;2023-08-17T06:28:33;100810.91;;;18.42;83.88
81181;BME280;70650;51.408;7.132;2023-08-17T06:30:59;100823.09;;;18.46;83.66
81181;BME280;70650;51.408;7.132;2023-08-17T06:33:24;100819.31;;;18.48;83.80
81181;BME280;70650;51.408;7.132;2023-08-17T06:35:51;100823.09;;;18.57;83.59
81181;BME280;70650;51.408;7.132;2023-08-17T06:38:16;100816.16;;;18.43;83.68
81181;BME280;70650;51.408;7.132;2023-08-17T06:40:42;100832.47;;;18.51;83.45
81181;BME280;70650;51.408;7.132;2023-08-17T06:43:07;100814.81;;;18.49;83.59
81181;BME280;70650;51.408;7.132;2023-08-17T06:45:33;100818.38;;;18.38;83.40
81181;BME280;70650;51.408;7.132;2023-08-17T06:47:58;100822.13;;;18.47;83.56
81181;BME280;70650;51.408;7.132;2023-08-17T06:50:24;100833.53;;;18.38;83.47
81181;BME280;70650;51.408;7.132;2023-08-17T06:52:50;100830.88;;;18.49;83.22
81181;BME280;70650;51.408;7.132;2023-08-17T06:55:16;100833.69;;;18.47;83.10
81181;BME280;70650;51.408;7.132;2023-08-17T06:57:42;100834.53;;;18.48;83.19
81181;BME280;70650;51.408;7.132;2023-08-17T07:00:08;100842.81;;;18.34;83.37
81181;BME280;70650;51.408;7.132;2023-08-17T07:02:33;100838.19;;;18.47;82.92
81181;BME280;70650;51.408;7.132;2023-08-17T07:05:02;100842.69;;;18.46;83.46
81181;BME280;70650;51.408;7.132;2023-08-17T07:07:29;100835.88;;;18.53;83.31
81181;BME280;70650;51.408;7.132;2023-08-17T07:09:56;100839.88;;;18.48;83.27
81181;BME280;70650;51.408;7.132;2023-08-17T07:12:22;100844.53;;;18.57;82.99
81181;BME280;70650;51.408;7.132;2023-08-17T07:14:49;100838.44;;;18.55;83.26
81181;BME280;70650;51.408;7.132;2023-08-17T07:17:14;100840.63;;;18.50;83.00
81181;BME280;70650;51.408;7.132;2023-08-17T07:19:40;100848.91;;;18.58;83.10
81181;BME280;70650;51.408;7.132;2023-08-17T07:22:06;100840.50;;;18.63;83.11
81181;BME280;70650;51.408;7.132;2023-08-17T07:24:31;100840.63;;;18.61;82.96
81181;BME280;70650;51.408;7.132;2023-08-17T07:26:57;100844.03;;;18.52;83.33
81181;BME280;70650;51.408;7.132;2023-08-17T07:29:22;100842.34;;;18.62;82.82
81181;BME280;70650;51.408;7.132;2023-08-17T07:31:48;100838.34;;;18.68;82.72
81181;BME280;70650;51.408;7.132;2023-08-17T07:34:13;100844.75;;;18.65;83.13
81181;BME280;70650;51.408;7.132;2023-08-17T07:36:39;100838.91;;;18.60;83.22
81181;BME280;70650;51.408;7.132;2023-08-17T07:39:04;100846.47;;;18.55;83.14
81181;BME280;70650;51.408;7.132;2023-08-17T07:41:30;100849.38;;;18.41;83.91
81181;BME280;70650;51.408;7.132;2023-08-17T07:43:56;100848.53;;;18.40;84.34
81181;BME280;70650;51.408;7.132;2023-08-17T07:46:21;100855.84;;;18.38;84.24
81181;BME280;70650;51.408;7.132;2023-08-17T07:48:46;100845.22;;;18.25;85.01
81181;BME280;70650;51.408;7.132;2023-08-17T07:51:12;100853.28;;;18.59;84.44
81181;BME280;70650;51.408;7.132;2023-08-17T07:53:39;100852.59;;;18.68;83.92
81181;BME280;70650;51.408;7.132;2023-08-17T07:56:04;100858.13;;;18.65;84.18
81181;BME280;70650;51.408;7.132;2023-08-17T07:58:30;100859.25;;;18.63;83.43
81181;BME280;70650;51.408;7.132;2023-08-17T08:00:55;100867.16;;;18.53;84.46
81181;BME280;70650;51.408;7.132;2023-08-17T08:03:20;100872.78;;;18.50;84.92
81181;BME280;70650;51.408;7.132;2023-08-17T08:05:46;100867.28;;;18.51;85.02
81181;BME280;70650;51.408;7.132;2023-08-17T08:08:12;100874.69;;;18.48;84.04
81181;BME280;70650;51.408;7.132;2023-08-17T08:10:39;100872.38;;;18.43;84.92
81181;BME280;70650;51.408;7.132;2023-08-17T08:13:05;100874.94;;;18.45;84.77
81181;BME280;70650;51.408;7.132;2023-08-17T08:15:30;100869.94;;;18.40;85.04
81181;BME280;70650;51.408;7.132;2023-08-17T08:17:55;100883.34;;;18.51;84.37
81181;BME280;70650;51.408;7.132;2023-08-17T08:20:21;100886.25;;;18.48;84.83
81181;BME280;70650;51.408;7.132;2023-08-17T08:22:49;100884.44;;;18.49;83.64
81181;BME280;70650;51.408;7.132;2023-08-17T08:25:17;100879.34;;;18.46;84.47
81181;BME280;70650;51.408;7.132;2023-08-17T08:27:42;100883.56;;;18.37;84.96
81181;BME280;70650;51.408;7.132;2023-08-17T08:30:08;100881.16;;;18.34;84.71
81181;BME280;70650;51.408;7.132;2023-08-17T08:32:33;100880.03;;;18.37;84.99
81181;BME280;70650;51.408;7.132;2023-08-17T08:34:59;100873.97;;;18.46;84.60
81181;BME280;70650;51.408;7.132;2023-08-17T08:37:24;100875.69;;;18.47;84.46
81181;BME280;70650;51.408;7.132;2023-08-17T08:39:51;100882.72;;;18.48;84.81
81181;BME280;70650;51.408;7.132;2023-08-17T08:42:18;100887.72;;;18.64;84.05
81181;BME280;70650;51.408;7.132;2023-08-17T08:44:44;100887.13;;;18.60;84.03
81181;BME280;70650;51.408;7.132;2023-08-17T08:47:10;100885.91;;;18.53;84.32
81181;BME280;70650;51.408;7.132;2023-08-17T08:49:42;100885.72;;;18.67;84.80
81181;BME280;70650;51.408;7.132;2023-08-17T08:52:14;100887.59;;;18.65;84.56
81181;BME280;70650;51.408;7.132;2023-08-17T08:54:44;100889.59;;;18.74;84.90
81181;BME280;70650;51.408;7.132;2023-08-17T08:57:13;100878.03;;;18.74;83.81
81181;BME280;70650;51.408;7.132;2023-08-17T08:59:43;100884.47;;;18.71;84.03
81181;BME280;70650;51.408;7.132;2023-08-17T09:02:15;100874.25;;;18.76;83.74
81181;BME280;70650;51.408;7.132;2023-08-17T09:04:45;100874.50;;;18.73;83.81
81181;BME280;70650;51.408;7.132;2023-08-17T09:07:15;100872.91;;;18.71;85.13
81181;BME280;70650;51.408;7.132;2023-08-17T09:09:45;100869.25;;;18.72;84.48
81181;BME280;70650;51.408;7.132;2023-08-17T09:12:11;100872.50;;;18.64;84.48
81181;BME280;70650;51.408;7.132;2023-08-17T09:14:36;100864.75;;;18.61;84.16
81181;BME280;70650;51.408;7.132;2023-08-17T09:17:06;100864.03;;;18.70;84.47
81181;BME280;70650;51.408;7.132;2023-08-17T09:19:32;100853.78;;;18.75;85.00
81181;BME280;70650;51.408;7.132;2023-08-17T09:21:59;100847.94;;;18.82;84.39
81181;BME280;70650;51.408;7.132;2023-08-17T09:24:28;100845.38;;;18.91;83.90
81181;BME280;70650;51.408;7.132;2023-08-17T09:26:58;100853.03;;;18.96;83.83
81181;BME280;70650;51.408;7.132;2023-08-17T09:29:25;100863.00;;;18.94;84.26
81181;BME280;70650;51.408;7.132;2023-08-17T09:31:50;100868.16;;;18.97;83.90
81181;BME280;70650;51.408;7.132;2023-08-17T09:34:16;100865.31;;;18.98;84.07
81181;BME280;70650;51.408;7.132;2023-08-17T09:36:41;100867.75;;;19.13;83.62
81181;BME280;70650;51.408;7.132;2023-08-17T09:39:07;100866.78;;;19.14;83.66
81181;BME280;70650;51.408;7.132;2023-08-17T09:41:38;100866.25;;;19.20;83.57
81181;BME280;70650;51.408;7.132;2023-08-17T09:44:06;100865.63;;;19.27;83.85
81181;BME280;70650;51.408;7.132;2023-08-17T09:46:31;100874.91;;;19.23;83.47
81181;BME280;70650;51.408;7.132;2023-08-17T09:48:57;100875.38;;;19.17;83.73
81181;BME280;70650;51.408;7.132;2023-08-17T09:51:23;100861.28;;;19.15;83.56
81181;BME280;70650;51.408;7.132;2023-08-17T09:53:53;100863.38;;;19.12;83.86
81181;BME280;70650;51.408;7.132;2023-08-17T09:56:21;100849.22;;;19.10;83.88
81181;BME280;70650;51.408;7.132;2023-08-17T09:58:49;100851.53;;;19.14;83.43
81181;BME280;70650;51.408;7.132;2023-08-17T10:01:15;100852.34;;;19.26;83.62
81181;BME280;70650;51.408;7.132;2023-08-17T10:03:43;100854.38;;;19.33;83.54
81181;BME280;70650;51.408;7.132;2023-08-17T10:06:11;100854.78;;;19.29;82.91
81181;BME280;70650;51.408;7.132;2023-08-17T10:08:46;100854.91;;;19.27;83.20
81181;BME280;70650;51.408;7.132;2023-08-17T10:11:12;100851.13;;;19.30;80.33
81181;BME280;70650;51.408;7.132;2023-08-17T10:13:43;100850.47;;;19.38;81.57
81181;BME280;70650;51.408;7.132;2023-08-17T10:16:36;100860.97;;;19.41;79.80
81181;BME280;70650;51.408;7.132;2023-08-17T10:19:52;100850.97;;;19.43;79.63
81181;BME280;70650;51.408;7.132;2023-08-17T10:24:18;100847.00;;;19.58;80.53
81181;BME280;70650;51.408;7.132;2023-08-17T10:26:45;100841.63;;;19.69;81.08
81181;BME280;70650;51.408;7.132;2023-08-17T10:29:11;100843.50;;;19.78;80.04
81181;BME280;70650;51.408;7.132;2023-08-17T10:31:38;100844.97;;;19.82;81.49
81181;BME280;70650;51.408;7.132;2023-08-17T10:34:04;100843.13;;;19.83;81.39
81181;BME280;70650;51.408;7.132;2023-08-17T10:36:31;100848.69;;;19.91;82.25
81181;BME280;70650;51.408;7.132;2023-08-17T10:39:25;100845.81;;;19.83;82.31
81181;BME280;70650;51.408;7.132;2023-08-17T10:41:53;100848.09;;;19.88;81.75
81181;BME280;70650;51.408;7.132;2023-08-17T10:44:48;100847.63;;;19.82;80.99
81181;BME280;70650;51.408;7.132;2023-08-17T10:47:30;100850.06;;;19.85;81.88
81181;BME280;70650;51.408;7.132;2023-08-17T10:52:30;100851.78;;;19.87;81.99
81181;BME280;70650;51.408;7.132;2023-08-17T10:54:59;100842.47;;;19.91;81.20
81181;BME280;70650;51.408;7.132;2023-08-17T11:00:20;100844.44;;;19.89;82.85
81181;BME280;70650;51.408;7.132;2023-08-17T11:02:57;100839.72;;;19.81;82.77
81181;BME280;70650;51.408;7.132;2023-08-17T11:05:42;100839.47;;;20.05;81.67
81181;BME280;70650;51.408;7.132;2023-08-17T11:13:30;100849.59;;;20.22;81.95
81181;BME280;70650;51.408;7.132;2023-08-17T11:15:57;100849.97;;;20.18;82.19
81181;BME280;70650;51.408;7.132;2023-08-17T11:18:23;100845.53;;;20.28;80.82
81181;BME280;70650;51.408;7.132;2023-08-17T11:20:50;100840.84;;;20.30;80.40
81181;BME280;70650;51.408;7.132;2023-08-17T11:23:17;100836.53;;;20.38;80.68
81181;BME280;70650;51.408;7.132;2023-08-17T11:25:44;100830.31;;;20.38;80.01
81181;BME280;70650;51.408;7.132;2023-08-17T11:28:10;100835.88;;;20.46;80.98
81181;BME280;70650;51.408;7.132;2023-08-17T11:30:36;100840.72;;;20.52;79.33
81181;BME280;70650;51.408;7.132;2023-08-17T11:33:04;100834.41;;;20.63;79.04
81181;BME280;70650;51.408;7.132;2023-08-17T11:35:31;100834.09;;;20.56;79.81
81181;BME280;70650;51.408;7.132;2023-08-17T11:37:57;100833.69;;;20.61;78.42
81181;BME280;70650;51.408;7.132;2023-08-17T11:40:25;100839.50;;;20.66;78.17
81181;BME280;70650;51.408;7.132;2023-08-17T11:42:51;100833.06;;;20.48;78.81
81181;BME280;70650;51.408;7.132;2023-08-17T11:45:17;100842.56;;;20.52;78.36
81181;BME280;70650;51.408;7.132;2023-08-17T11:47:43;100839.41;;;20.47;78.33
81181;BME280;70650;51.408;7.132;2023-08-17T11:50:11;100839.91;;;20.41;79.82
81181;BME280;70650;51.408;7.132;2023-08-17T11:52:40;100842.75;;;20.39;80.05
81181;BME280;70650;51.408;7.132;2023-08-17T11:55:07;100838.69;;;20.45;79.22
81181;BME280;70650;51.408;7.132;2023-08-17T11:57:35;100844.69;;;20.58;79.43
81181;BME280;70650;51.408;7.132;2023-08-17T12:00:02;100843.03;;;20.67;78.86
81181;BME280;70650;51.408;7.132;2023-08-17T12:02:30;100848.63;;;20.84;78.43
81181;BME280;70650;51.408;7.132;2023-08-17T12:04:56;100845.81;;;20.96;77.97
81181;BME280;70650;51.408;7.132;2023-08-17T12:07:25;100842.00;;;20.98;77.66
81181;BME280;70650;51.408;7.132;2023-08-17T12:09:51;100838.59;;;20.96;78.10
81181;BME280;70650;51.408;7.132;2023-08-17T12:12:19;100839.59;;;20.95;77.76
81181;BME280;70650;51.408;7.132;2023-08-17T12:14:46;100837.31;;;20.90;77.59
81181;BME280;70650;51.408;7.132;2023-08-17T12:17:19;100849.75;;;20.91;78.70
81181;BME280;70650;51.408;7.132;2023-08-17T12:19:53;100845.47;;;20.79;78.69
81181;BME280;70650;51.408;7.132;2023-08-17T12:22:26;100849.13;;;20.69;78.83
81181;BME280;70650;51.408;7.132;2023-08-17T12:24:52;100841.75;;;20.61;78.71
81181;BME280;70650;51.408;7.132;2023-08-17T12:27:17;100844.78;;;20.47;79.18
81181;BME280;70650;51.408;7.132;2023-08-17T12:29:47;100839.91;;;20.41;80.60
81181;BME280;70650;51.408;7.132;2023-08-17T12:32:14;100845.28;;;20.41;80.56
81181;BME280;70650;51.408;7.132;2023-08-17T12:34:40;100838.75;;;20.33;80.18
81181;BME280;70650;51.408;7.132;2023-08-17T12:37:08;100835.69;;;20.38;80.37
81181;BME280;70650;51.408;7.132;2023-08-17T12:39:34;100834.84;;;20.37;80.18
81181;BME280;70650;51.408;7.132;2023-08-17T12:41:59;100833.13;;;20.36;80.04
81181;BME280;70650;51.408;7.132;2023-08-17T12:44:24;100833.56;;;20.42;79.97
81181;BME280;70650;51.408;7.132;2023-08-17T12:46:50;100833.31;;;20.45;80.46
81181;BME280;70650;51.408;7.132;2023-08-17T12:49:15;100833.69;;;20.40;81.23
81181;BME280;70650;51.408;7.132;2023-08-17T12:51:40;100838.22;;;20.39;80.38
81181;BME280;70650;51.408;7.132;2023-08-17T12:54:07;100831.59;;;20.44;80.02
81181;BME280;70650;51.408;7.132;2023-08-17T12:56:32;100825.25;;;20.45;80.10
81181;BME280;70650;51.408;7.132;2023-08-17T12:58:58;100827.94;;;20.45;80.61
81181;BME280;70650;51.408;7.132;2023-08-17T13:01:24;100822.25;;;20.38;80.92
81181;BME280;70650;51.408;7.132;2023-08-17T13:03:49;100829.78;;;20.44;81.30
81181;BME280;70650;51.408;7.132;2023-08-17T13:06:15;100833.25;;;20.35;81.19